createdAt,value
2024-01-09T00:01:22.849Z,1464
2024-01-09T00:03:06.774Z,1459.8
2024-01-09T00:04:50.267Z,1456.9
2024-01-09T00:06:33.921Z,1453.8
2024-01-09T00:08:17.813Z,1450.4
2024-01-09T00:10:01.480Z,1443.5
2024-01-09T00:11:45.200Z,1439.2
2024-01-09T00:13:29.064Z,1436
2024-01-09T00:15:12.519Z,1431.2
2024-01-09T00:16:56.460Z,1428.9
2024-01-09T00:18:40.055Z,1426.4
2024-01-09T00:20:23.750Z,1425.9
2024-01-09T00:22:07.370Z,1423.2
2024-01-09T00:23:51.194Z,1422.7
2024-01-09T00:25:34.968Z,1426.3
2024-01-09T00:27:18.355Z,1424.9
2024-01-09T00:29:02.349Z,1425.2
2024-01-09T00:30:46.122Z,1419.2
2024-01-09T00:32:29.748Z,1421
2024-01-09T00:34:13.312Z,1419.5
2024-01-09T00:35:57.177Z,1421.6
2024-01-09T00:37:40.558Z,1420.2
2024-01-09T00:39:24.618Z,1424.4
2024-01-09T00:41:08.254Z,1421.8
2024-01-09T00:42:51.964Z,1420.3
2024-01-09T00:44:35.702Z,1420.2
2024-01-09T00:48:02.957Z,1425.5
2024-01-09T00:49:46.697Z,1423.4
2024-01-09T00:51:30.482Z,1418.4
2024-01-09T00:53:14.161Z,1422.9
2024-01-09T00:54:57.915Z,1425.4
2024-01-09T00:56:41.588Z,1427
2024-01-09T00:58:25.318Z,1427.6
2024-01-09T01:00:08.832Z,1431.7
2024-01-09T01:01:52.412Z,1434.4
2024-01-09T01:03:36.328Z,1431.9
2024-01-09T01:05:19.907Z,1421.4
2024-01-09T01:07:03.663Z,1404.7
2024-01-09T01:08:47.360Z,1391.1
2024-01-09T01:10:30.910Z,1385.7
2024-01-09T01:12:14.861Z,1386.2
2024-01-09T01:15:42.207Z,1386.3
2024-01-09T01:17:25.729Z,1379.7
2024-01-09T01:19:09.452Z,1376.3
2024-01-09T01:20:53.309Z,1373.2
2024-01-09T01:22:36.999Z,1375
2024-01-09T01:24:20.596Z,1376.8
2024-01-09T01:26:04.227Z,1369.8
2024-01-09T01:27:48.081Z,1366.3
2024-01-09T01:29:31.681Z,1365.4
2024-01-09T01:32:59.180Z,1365
2024-01-09T01:34:43.071Z,1359.6
2024-01-09T01:36:26.553Z,1360.1
2024-01-09T01:38:10.157Z,1355.4
2024-01-09T01:39:54.064Z,1354.7
2024-01-09T01:41:37.835Z,1354.3
2024-01-09T01:43:21.435Z,1351.6
2024-01-09T01:45:05.021Z,1352.1
2024-01-09T01:46:48.906Z,1349.7
2024-01-09T01:48:32.426Z,1352.4
2024-01-09T01:50:16.079Z,1354.7
2024-01-09T01:51:59.900Z,1359
2024-01-09T01:53:43.670Z,1356
2024-01-09T01:55:27.308Z,1360.3
2024-01-09T01:57:10.923Z,1357.8
2024-01-09T01:58:54.581Z,1350.4
2024-01-09T02:00:38.368Z,1350.6
2024-01-09T02:02:22.015Z,1347.6
2024-01-09T02:04:05.988Z,1343.1
2024-01-09T02:05:49.403Z,1341.7
2024-01-09T02:07:33.269Z,1341.3
2024-01-09T02:09:16.862Z,1342.5
2024-01-09T02:11:00.576Z,1339.6
2024-01-09T02:12:44.207Z,1337.2
2024-01-09T02:14:27.910Z,1336.2
2024-01-09T02:16:11.849Z,1331.9
2024-01-09T02:17:55.502Z,1321.6
2024-01-09T02:19:39.197Z,1312.6
2024-01-09T02:21:22.944Z,1307.6
2024-01-09T02:23:06.465Z,1302.6
2024-01-09T02:24:50.399Z,1301.6
2024-01-09T02:26:34.000Z,1300.3
2024-01-09T02:28:17.520Z,1305.2
2024-01-09T02:30:01.536Z,1305.8
2024-01-09T02:31:44.940Z,1307.4
2024-01-09T02:33:28.814Z,1308.6
2024-01-09T02:35:12.478Z,1307.9
2024-01-09T02:36:56.024Z,1303
2024-01-09T02:38:39.739Z,1298.2
2024-01-09T02:40:23.446Z,1297.4
2024-01-09T02:42:07.192Z,1295.8
2024-01-09T02:43:50.907Z,1296.8
2024-01-09T02:45:34.679Z,1316.1
2024-01-09T02:47:18.240Z,1322
2024-01-09T02:49:02.017Z,1321.7
2024-01-09T02:50:45.648Z,1319.4
2024-01-09T02:52:29.477Z,1321.1
2024-01-09T02:54:13.089Z,1321.7
2024-01-09T02:55:56.790Z,1323.7
2024-01-09T02:57:40.485Z,1328.3
2024-01-09T02:59:24.163Z,1331.1
2024-01-09T03:01:08.108Z,1328.5
2024-01-09T03:02:51.598Z,1326.7
2024-01-09T03:04:35.269Z,1321.3
2024-01-09T03:06:19.072Z,1317.8
2024-01-09T03:08:02.728Z,1317.9
2024-01-09T03:09:46.384Z,1315
2024-01-09T03:11:30.366Z,1322.5
2024-01-09T03:13:13.799Z,1321.6
2024-01-09T03:14:57.483Z,1322.2
2024-01-09T03:16:41.312Z,1321.8
2024-01-09T03:18:24.936Z,1322.4
2024-01-09T03:20:08.913Z,1323.6
2024-01-09T03:21:52.587Z,1327
2024-01-09T03:23:36.036Z,1331.7
2024-01-09T03:25:19.709Z,1326.5
2024-01-09T03:27:03.472Z,1322.8
2024-01-09T03:28:47.196Z,1315.9
2024-01-09T03:30:30.827Z,1318.5
2024-01-09T03:32:14.521Z,1322.3
2024-01-09T03:33:58.218Z,1325.9
2024-01-09T03:35:41.924Z,1327.7
2024-01-09T03:37:25.638Z,1329
2024-01-09T03:39:09.325Z,1332.5
2024-01-09T03:40:53.030Z,1330.5
2024-01-09T03:42:36.821Z,1331.3
2024-01-09T03:46:04.144Z,1332.2
2024-01-09T03:47:47.838Z,1328.2
2024-01-09T03:49:31.549Z,1330.7
2024-01-09T03:51:15.617Z,1331
2024-01-09T03:52:58.958Z,1333.5
2024-01-09T03:54:42.649Z,1333.9
2024-01-09T03:56:26.383Z,1333.2
2024-01-09T03:58:10.064Z,1327.4
2024-01-09T03:59:53.788Z,1326.8
2024-01-09T04:01:37.485Z,1326.1
2024-01-09T04:03:21.187Z,1327.1
2024-01-09T04:05:04.919Z,1324.9
2024-01-09T04:06:48.573Z,1329.1
2024-01-09T04:08:32.493Z,1328.6
2024-01-09T04:10:16.016Z,1325.2
2024-01-09T04:11:59.764Z,1325.9
2024-01-09T04:13:43.385Z,1330.9
2024-01-09T04:15:27.127Z,1328.8
2024-01-09T04:17:10.916Z,1326.5
2024-01-09T04:18:54.488Z,1327.7
2024-01-09T04:20:38.208Z,1328.2
2024-01-09T04:22:21.958Z,1330.9
2024-01-09T04:24:05.597Z,1336.4
2024-01-09T04:25:49.302Z,1334.7
2024-01-09T04:27:33.023Z,1332
2024-01-09T04:29:16.713Z,1330.1
2024-01-09T04:31:00.588Z,1329.7
2024-01-09T04:32:44.115Z,1331.4
2024-01-09T04:34:27.844Z,1336.7
2024-01-09T04:36:11.510Z,1335
2024-01-09T04:37:55.250Z,1327.4
2024-01-09T04:39:38.924Z,1330
2024-01-09T04:41:22.637Z,1335
2024-01-09T04:43:06.336Z,1343.2
2024-01-09T04:44:50.030Z,1341.8
2024-01-09T04:46:33.720Z,1344.8
2024-01-09T04:48:17.422Z,1343.9
2024-01-09T04:50:01.180Z,1342.3
2024-01-09T04:51:44.964Z,1340.3
2024-01-09T04:53:28.607Z,1337.1
2024-01-09T04:55:12.242Z,1336.5
2024-01-09T04:56:55.957Z,1337.1
2024-01-09T04:58:39.660Z,1338.8
2024-01-09T05:00:23.440Z,1340.1
2024-01-09T05:02:07.044Z,1337
2024-01-09T05:03:51.041Z,1334.1
2024-01-09T05:05:34.450Z,1333.2
2024-01-09T05:07:18.140Z,1334.6
2024-01-09T05:09:01.866Z,1334.3
2024-01-09T05:10:45.555Z,1331.4
2024-01-09T05:12:29.333Z,1334.6
2024-01-09T05:14:12.954Z,1336
2024-01-09T05:15:56.753Z,1337.6
2024-01-09T05:17:40.494Z,1339.9
2024-01-09T05:19:24.140Z,1341.6
2024-01-09T05:21:08.146Z,1342.8
2024-01-09T05:22:51.469Z,1344
2024-01-09T05:24:35.220Z,1345.3
2024-01-09T05:26:18.880Z,1348.7
2024-01-09T05:28:02.580Z,1347.2
2024-01-09T05:29:46.295Z,1347
2024-01-09T05:31:30.037Z,1349.4
2024-01-09T05:33:13.676Z,1348.4
2024-01-09T05:36:41.133Z,1337.9
2024-01-09T05:38:24.793Z,1340.7
2024-01-09T05:40:08.548Z,1343.9
2024-01-09T05:41:52.407Z,1344.8
2024-01-09T05:43:35.950Z,1346.7
2024-01-09T05:45:19.611Z,1347.2
2024-01-09T05:47:03.415Z,1350
2024-01-09T05:48:47.016Z,1386
2024-01-09T05:50:30.717Z,1406.2
2024-01-09T05:52:14.412Z,1421
2024-01-09T05:53:58.119Z,1457.8
2024-01-09T05:55:41.941Z,1488.5
2024-01-09T05:57:25.568Z,1503.5
2024-01-09T05:59:09.260Z,1507.2
2024-01-09T06:00:52.989Z,1508.7
2024-01-09T06:02:36.678Z,1509.6
2024-01-09T06:04:20.351Z,1507.5
2024-01-09T06:06:04.048Z,1504.4
2024-01-09T06:07:47.777Z,1495.9
2024-01-09T06:09:31.444Z,1495.6
2024-01-09T06:11:15.417Z,1496.5
2024-01-09T06:12:59.095Z,1499
2024-01-09T06:14:42.678Z,1499.4
2024-01-09T06:16:26.263Z,1500.8
2024-01-09T06:18:10.003Z,1503.9
2024-01-09T06:19:53.721Z,1533.7
2024-01-09T06:21:37.460Z,1623.7
2024-01-09T06:23:21.257Z,1610.5
2024-01-09T06:25:04.764Z,1606.8
2024-01-09T06:26:48.511Z,1587.7
2024-01-09T06:28:32.170Z,1579
2024-01-09T06:30:15.898Z,1579.7
2024-01-09T06:31:59.784Z,1600.6
2024-01-09T06:33:43.298Z,1626.1
2024-01-09T06:35:26.983Z,1651.1
2024-01-09T06:37:10.687Z,1654.8
2024-01-09T06:38:54.406Z,1635.8
2024-01-09T06:40:38.081Z,1619.5
2024-01-09T06:42:22.096Z,1615.7
2024-01-09T06:44:05.733Z,1615.9
2024-01-09T06:45:49.297Z,1616
2024-01-09T06:47:33.055Z,1616.6
2024-01-09T06:49:16.635Z,1617.4
2024-01-09T06:51:00.454Z,1615.8
2024-01-09T06:52:44.025Z,1614.6
2024-01-09T06:54:27.886Z,1613.5
2024-01-09T06:56:11.475Z,1645.2
2024-01-09T06:57:55.196Z,1679.1
2024-01-09T06:59:38.916Z,1693.5
2024-01-09T07:01:22.630Z,1692.4
2024-01-09T07:03:06.395Z,1690.2
2024-01-09T07:04:49.924Z,1688.1
2024-01-09T07:06:33.658Z,1687.3
2024-01-09T07:08:17.332Z,1677.4
2024-01-09T07:10:01.033Z,1670.1
2024-01-09T07:11:44.793Z,1663.5
2024-01-09T07:13:28.435Z,1663.1
2024-01-09T07:15:12.134Z,1663.1
2024-01-09T07:16:55.873Z,1659.5
2024-01-09T07:18:39.538Z,1665.9
2024-01-09T07:20:23.239Z,1669.2
2024-01-09T07:22:06.945Z,1667.8
2024-01-09T07:23:50.960Z,1662.6
2024-01-09T07:25:34.371Z,1657.1
2024-01-09T07:27:18.072Z,1653.1
2024-01-09T07:29:01.910Z,1651.8
2024-01-09T07:30:45.667Z,1649.2
2024-01-09T07:32:29.221Z,1648.1
2024-01-09T07:34:12.870Z,1647.4
2024-01-09T07:35:56.576Z,1643.7
2024-01-09T07:37:40.274Z,1640.4
2024-01-09T07:39:24.079Z,1635.6
2024-01-09T07:41:08.027Z,1628.3
2024-01-09T07:42:51.408Z,1620.8
2024-01-09T07:44:35.111Z,1622
2024-01-09T07:46:18.790Z,1623
2024-01-09T07:48:02.513Z,1622.8
2024-01-09T07:49:46.219Z,1627
2024-01-09T07:51:30.015Z,1622.9
2024-01-09T07:53:13.756Z,1620.3
2024-01-09T07:54:57.310Z,1618.6
2024-01-09T07:56:40.997Z,1611.9
2024-01-09T07:58:24.779Z,1614
2024-01-09T08:00:08.479Z,1606.8
2024-01-09T08:01:52.439Z,1604.8
2024-01-09T08:03:35.919Z,1598.5
2024-01-09T08:05:19.514Z,1596.6
2024-01-09T08:07:03.276Z,1594.4
2024-01-09T08:08:47.111Z,1590.1
2024-01-09T08:10:30.633Z,1588.5
2024-01-09T08:12:14.408Z,1589.3
2024-01-09T08:13:58.166Z,1590.7
2024-01-09T08:15:41.725Z,1588.4
2024-01-09T08:17:25.439Z,1589.2
2024-01-09T08:19:09.197Z,1588.4
2024-01-09T08:20:52.842Z,1589
2024-01-09T08:22:36.544Z,1593.7
2024-01-09T08:24:20.274Z,1590.8
2024-01-09T08:26:03.978Z,1586.2
2024-01-09T08:27:47.662Z,1587.8
2024-01-09T08:29:31.350Z,1582.2
2024-01-09T08:31:15.318Z,1576.8
2024-01-09T08:32:58.822Z,1576
2024-01-09T08:34:42.530Z,1578.4
2024-01-09T08:36:26.274Z,1575.1
2024-01-09T08:38:09.869Z,1578.6
2024-01-09T08:39:53.570Z,1578.2
2024-01-09T08:41:37.330Z,1573.6
2024-01-09T08:43:21.087Z,1571.6
2024-01-09T08:45:04.673Z,1572.2
2024-01-09T08:46:48.434Z,1571.5
2024-01-09T08:48:32.075Z,1570.8
2024-01-09T08:50:15.824Z,1567
2024-01-09T08:51:59.553Z,1566.3
2024-01-09T08:53:43.179Z,1566.1
2024-01-09T08:55:26.964Z,1563.2
2024-01-09T08:57:10.593Z,1558.6
2024-01-09T08:58:54.340Z,1556.4
2024-01-09T09:00:37.994Z,1557.7
2024-01-09T09:04:05.449Z,1561.9
2024-01-09T09:05:49.124Z,1561.2
2024-01-09T09:07:32.810Z,1561.8
2024-01-09T09:09:16.515Z,1560.2
2024-01-09T09:11:00.423Z,1556.4
2024-01-09T09:12:43.974Z,1553.3
2024-01-09T09:14:27.763Z,1555.6
2024-01-09T09:16:11.355Z,1548
2024-01-09T09:17:55.093Z,1547.7
2024-01-09T09:19:38.788Z,1543
2024-01-09T09:21:22.516Z,1542.1
2024-01-09T09:23:06.251Z,1544.4
2024-01-09T09:24:49.916Z,1544.4
2024-01-09T09:26:33.570Z,1546.3
2024-01-09T09:28:17.294Z,1551.8
2024-01-09T09:30:01.078Z,1548.5
2024-01-09T09:31:44.644Z,1543.9
2024-01-09T09:33:28.345Z,1543.2
2024-01-09T09:35:12.212Z,1542.4
2024-01-09T09:36:55.855Z,1543.9
2024-01-09T09:38:39.456Z,1545.3
2024-01-09T09:40:23.162Z,1548.8
2024-01-09T09:42:06.963Z,1547.2
2024-01-09T09:43:50.637Z,1539.4
2024-01-09T09:45:34.274Z,1528.2
2024-01-09T09:47:17.999Z,1532.1
2024-01-09T09:49:01.734Z,1533.4
2024-01-09T09:50:45.408Z,1531.4
2024-01-09T09:52:29.079Z,1527.1
2024-01-09T09:54:12.783Z,1526.9
2024-01-09T09:55:56.511Z,1524.3
2024-01-09T09:57:40.196Z,1525.9
2024-01-09T09:59:24.007Z,1524.6
2024-01-09T10:01:07.919Z,1524.2
2024-01-09T10:02:51.343Z,1521
2024-01-09T10:04:35.026Z,1517.4
2024-01-09T10:06:18.954Z,1519.1
2024-01-09T10:08:02.407Z,1516.4
2024-01-09T10:09:46.206Z,1515.9
2024-01-09T10:11:29.904Z,1519.9
2024-01-09T10:13:13.652Z,1521.9
2024-01-09T10:14:57.220Z,1517.4
2024-01-09T10:16:41.082Z,1514
2024-01-09T10:18:24.626Z,1511.4
2024-01-09T10:20:08.317Z,1510.1
2024-01-09T10:21:52.193Z,1507.7
2024-01-09T10:23:35.725Z,1502.1
2024-01-09T10:25:19.416Z,1502.2
2024-01-09T10:27:03.130Z,1499.4
2024-01-09T10:28:46.889Z,1496.7
2024-01-09T10:30:30.546Z,1496.7
2024-01-09T10:32:14.234Z,1495.7
2024-01-09T10:33:57.934Z,1495.5
2024-01-09T10:35:41.634Z,1499.2
2024-01-09T10:37:25.340Z,1499.3
2024-01-09T10:39:09.055Z,1496
2024-01-09T10:42:36.592Z,1494.6
2024-01-09T10:44:20.149Z,1491.4
2024-01-09T10:46:03.870Z,1490.9
2024-01-09T10:47:47.562Z,1491.4
2024-01-09T10:49:31.253Z,1490.7
2024-01-09T10:51:15.280Z,1488.4
2024-01-09T10:52:58.660Z,1490.2
2024-01-09T10:54:42.441Z,1488.3
2024-01-09T10:56:26.181Z,1485.4
2024-01-09T10:58:09.801Z,1484.7
2024-01-09T10:59:53.700Z,1482.9
2024-01-09T11:01:37.366Z,1482.1
2024-01-09T11:03:20.876Z,1484
2024-01-09T11:05:04.664Z,1481.3
2024-01-09T11:06:48.451Z,1480
2024-01-09T11:08:32.099Z,1478.5
2024-01-09T11:10:15.685Z,1475
2024-01-09T11:11:59.429Z,1473.5
2024-01-09T11:13:43.098Z,1471.8
2024-01-09T11:15:26.898Z,1469
2024-01-09T11:17:10.584Z,1471.8
2024-01-09T11:18:54.270Z,1473.4
2024-01-09T11:20:37.898Z,1468.2
2024-01-09T11:22:21.772Z,1468.1
2024-01-09T11:24:05.367Z,1465.9
2024-01-09T11:25:49.080Z,1465.2
2024-01-09T11:27:32.767Z,1467.7
2024-01-09T11:29:16.432Z,1468.5
2024-01-09T11:31:00.113Z,1469.9
2024-01-09T11:32:43.815Z,1471.4
2024-01-09T11:34:27.523Z,1467.8
2024-01-09T11:36:11.226Z,1465.3
2024-01-09T11:37:54.935Z,1469.5
2024-01-09T11:39:38.631Z,1466.9
2024-01-09T11:41:22.337Z,1463
2024-01-09T11:43:06.064Z,1461.3
2024-01-09T11:44:49.736Z,1462.5
2024-01-09T11:46:33.469Z,1464.8
2024-01-09T11:48:17.156Z,1465.9
2024-01-09T11:50:00.842Z,1460.7
2024-01-09T11:51:44.729Z,1457.6
2024-01-09T11:53:28.286Z,1452.5
2024-01-09T11:55:12.036Z,1454
2024-01-09T11:56:55.679Z,1458.1
2024-01-09T11:58:39.350Z,1459.2
2024-01-09T12:00:23.084Z,1459.3
2024-01-09T12:02:07.017Z,1467.4
2024-01-09T12:03:50.590Z,1465.2
2024-01-09T12:05:34.188Z,1459.8
2024-01-09T12:07:17.980Z,1456.5
2024-01-09T12:09:01.779Z,1452
2024-01-09T12:10:45.276Z,1445.1
2024-01-09T12:12:29.009Z,1444.1
2024-01-09T12:14:12.923Z,1443.5
2024-01-09T12:15:56.402Z,1440.5
2024-01-09T12:17:40.086Z,1438.3
2024-01-09T12:19:23.819Z,1442.3
2024-01-09T12:21:07.819Z,1442.7
2024-01-09T12:22:51.209Z,1440.8
2024-01-09T12:24:34.898Z,1442.1
2024-01-09T12:26:18.589Z,1440.9
2024-01-09T12:28:02.396Z,1440.6
2024-01-09T12:29:46.008Z,1438.1
2024-01-09T12:31:29.728Z,1440.4
2024-01-09T12:33:13.425Z,1438.6
2024-01-09T12:34:57.163Z,1437.6
2024-01-09T12:36:40.810Z,1437.6
2024-01-09T12:38:24.510Z,1434.9
2024-01-09T12:40:08.217Z,1434.7
2024-01-09T12:41:51.973Z,1434.2
2024-01-09T12:43:35.642Z,1431.1
2024-01-09T12:45:19.328Z,1430.9
2024-01-09T12:47:03.025Z,1429.2
2024-01-09T12:48:46.746Z,1423.6
2024-01-09T12:50:30.446Z,1415.9
2024-01-09T12:52:14.425Z,1415
2024-01-09T12:53:58.103Z,1415.4
2024-01-09T12:55:41.531Z,1415.8
2024-01-09T12:57:25.528Z,1417
2024-01-09T12:59:08.959Z,1420.5
2024-01-09T13:00:52.711Z,1416.8
2024-01-09T13:02:36.358Z,1412.4
2024-01-09T13:04:20.080Z,1409.9
2024-01-09T13:06:04.116Z,1409.2
2024-01-09T13:07:47.626Z,1408.6
2024-01-09T13:09:31.148Z,1408.2
2024-01-09T13:11:15.194Z,1409.9
2024-01-09T13:12:58.785Z,1412.1
2024-01-09T13:14:42.385Z,1409.9
2024-01-09T13:16:26.085Z,1410.4
2024-01-09T13:18:09.773Z,1405.9
2024-01-09T13:19:53.364Z,1403.1
2024-01-09T13:21:37.130Z,1403.5
2024-01-09T13:23:20.779Z,1400.6
2024-01-09T13:25:04.682Z,1400.3
2024-01-09T13:26:48.188Z,1399.5
2024-01-09T13:28:31.933Z,1399.7
2024-01-09T13:30:15.587Z,1402.5
2024-01-09T13:31:59.288Z,1401.6
2024-01-09T13:33:42.973Z,1400
2024-01-09T13:37:10.493Z,1393.6
2024-01-09T13:38:54.189Z,1392.5
2024-01-09T13:40:37.800Z,1393.5
2024-01-09T13:42:21.498Z,1392
2024-01-09T13:44:05.273Z,1396.3
2024-01-09T13:45:48.919Z,1396.6
2024-01-09T13:47:32.621Z,1395.1
2024-01-09T13:49:16.321Z,1391.7
2024-01-09T13:51:00.028Z,1391.1
2024-01-09T13:52:43.713Z,1387.7
2024-01-09T13:54:27.418Z,1387.1
2024-01-09T13:56:11.382Z,1383.1
2024-01-09T13:57:54.873Z,1387.2
2024-01-09T13:59:38.796Z,1385.6
2024-01-09T14:01:22.498Z,1383.2
2024-01-09T14:03:06.266Z,1380.8
2024-01-09T14:04:49.873Z,1378.5
2024-01-09T14:06:33.421Z,1372.9
2024-01-09T14:08:17.176Z,1372.6
2024-01-09T14:10:00.844Z,1371.4
2024-01-09T14:11:44.680Z,1370.2
2024-01-09T14:13:28.396Z,1364.9
2024-01-09T14:15:11.945Z,1364.5
2024-01-09T14:16:55.643Z,1365.1
2024-01-09T14:18:39.549Z,1367.9
2024-01-09T14:20:23.010Z,1367.5
2024-01-09T14:22:06.677Z,1367.9
2024-01-09T14:23:50.371Z,1367.8
2024-01-09T14:25:34.080Z,1366.5
2024-01-09T14:27:17.996Z,1366.1
2024-01-09T14:29:01.474Z,1362.9
2024-01-09T14:30:45.189Z,1359.6
2024-01-09T14:32:28.938Z,1360.9
2024-01-09T14:34:12.586Z,1360.6
2024-01-09T14:35:56.327Z,1352.8
2024-01-09T14:37:40.160Z,1350.9
2024-01-09T14:39:23.731Z,1348.2
2024-01-09T14:41:07.405Z,1344.8
2024-01-09T14:42:51.131Z,1342.1
2024-01-09T14:44:34.813Z,1339.5
2024-01-09T14:46:18.808Z,1337.1
2024-01-09T14:48:02.404Z,1336.8
2024-01-09T14:49:46.028Z,1340.9
2024-01-09T14:51:29.782Z,1340.7
2024-01-09T14:53:13.465Z,1336.2
2024-01-09T14:54:57.066Z,1335.9
2024-01-09T14:56:40.805Z,1334.1
2024-01-09T14:58:24.468Z,1335.3
2024-01-09T15:00:08.120Z,1333.9
2024-01-09T15:01:51.832Z,1335.5
2024-01-09T15:03:35.543Z,1339.8
2024-01-09T15:05:19.229Z,1340.7
2024-01-09T15:07:03.010Z,1340.6
2024-01-09T15:08:46.691Z,1338.1
2024-01-09T15:10:30.445Z,1336.5
2024-01-09T15:12:14.122Z,1333.9
2024-01-09T15:13:57.761Z,1330.5
2024-01-09T15:15:41.454Z,1330.5
2024-01-09T15:17:25.224Z,1333.3
2024-01-09T15:19:08.864Z,1337.5
2024-01-09T15:20:52.876Z,1337.9
2024-01-09T15:22:36.292Z,1342
2024-01-09T15:24:20.004Z,1332.5
2024-01-09T15:26:03.662Z,1332.9
2024-01-09T15:27:47.380Z,1336.5
2024-01-09T15:29:31.120Z,1323.6
2024-01-09T15:31:15.064Z,1327.1
2024-01-09T15:32:58.483Z,1332.3
2024-01-09T15:34:42.181Z,1330.9
2024-01-09T15:36:25.887Z,1330.2
2024-01-09T15:38:09.594Z,1325.9
2024-01-09T15:39:53.295Z,1317.6
2024-01-09T15:41:37.109Z,1314.4
2024-01-09T15:43:20.697Z,1320.4
2024-01-09T15:45:04.496Z,1321.2
2024-01-09T15:46:48.128Z,1320.6
2024-01-09T15:48:31.807Z,1316.9
2024-01-09T15:50:15.547Z,1314.6
2024-01-09T15:51:59.339Z,1315.1
2024-01-09T15:53:42.937Z,1315.9
2024-01-09T15:55:26.605Z,1316.2
2024-01-09T15:57:10.341Z,1311.5
2024-01-09T15:58:54.016Z,1308.3
2024-01-09T16:00:37.721Z,1302.6
2024-01-09T16:02:21.420Z,1302.2
2024-01-09T16:04:05.148Z,1302.9
2024-01-09T16:05:48.822Z,1301.3
2024-01-09T16:07:32.525Z,1301.3
2024-01-09T16:09:16.244Z,1297.8
2024-01-09T16:10:59.929Z,1298
2024-01-09T16:12:43.910Z,1289
2024-01-09T16:14:27.581Z,1291.3
2024-01-09T16:16:11.227Z,1290.4
2024-01-09T16:17:54.975Z,1285.2
2024-01-09T16:19:38.437Z,1285.5
2024-01-09T16:21:22.364Z,1281.5
2024-01-09T16:23:05.903Z,1281.8
2024-01-09T16:24:49.554Z,1284.2
2024-01-09T16:26:33.259Z,1288.7
2024-01-09T16:28:16.951Z,1289.7
2024-01-09T16:30:00.813Z,1290.5
2024-01-09T16:31:44.438Z,1288.1
2024-01-09T16:33:28.073Z,1284.9
2024-01-09T16:35:11.769Z,1279.2
2024-01-09T16:36:55.475Z,1277.6
2024-01-09T16:38:39.180Z,1272.3
2024-01-09T16:40:22.919Z,1267.4
2024-01-09T16:42:06.879Z,1262.7
2024-01-09T16:43:50.360Z,1255.5
2024-01-09T16:45:33.991Z,1255.3
2024-01-09T16:47:17.986Z,1256.8
2024-01-09T16:49:01.594Z,1258.5
2024-01-09T16:50:45.225Z,1260.3
2024-01-09T16:54:12.690Z,1260.5
2024-01-09T16:55:56.352Z,1260.2
2024-01-09T16:57:40.046Z,1259.2
2024-01-09T16:59:23.845Z,1258.8
2024-01-09T17:01:07.569Z,1257.2
2024-01-09T17:02:51.255Z,1260.1
2024-01-09T17:04:34.777Z,1263.2
2024-01-09T17:06:18.403Z,1268
2024-01-09T17:08:02.343Z,1270.8
2024-01-09T17:09:45.824Z,1268.2
2024-01-09T17:11:29.512Z,1266.8
2024-01-09T17:13:13.266Z,1267.8
2024-01-09T17:14:56.979Z,1268.8
2024-01-09T17:16:40.628Z,1268.5
2024-01-09T17:18:24.478Z,1266.2
2024-01-09T17:20:08.297Z,1268.1
2024-01-09T17:21:52.009Z,1270.8
2024-01-09T17:23:35.745Z,1271.5
2024-01-09T17:25:19.421Z,1272.2
2024-01-09T17:27:03.151Z,1273.5
2024-01-09T17:28:46.867Z,1274.9
2024-01-09T17:30:30.510Z,1274.7
2024-01-09T17:32:13.944Z,1272.9
2024-01-09T17:33:57.934Z,1266.1
2024-01-09T17:35:41.438Z,1258.2
2024-01-09T17:37:25.202Z,1260.1
2024-01-09T17:39:09.013Z,1257.3
2024-01-09T17:40:52.490Z,1262
2024-01-09T17:42:36.269Z,1259.8
2024-01-09T17:44:19.908Z,1261.3
2024-01-09T17:46:03.855Z,1256.7
2024-01-09T17:47:47.326Z,1248.8
2024-01-09T17:49:30.978Z,1252.6
2024-01-09T17:51:14.979Z,1240
2024-01-09T17:52:58.482Z,1233.8
2024-01-09T17:54:42.268Z,1231.6
2024-01-09T17:56:25.858Z,1230.9
2024-01-09T17:58:09.551Z,1226.2
2024-01-09T17:59:53.253Z,1236.6
2024-01-09T18:01:36.990Z,1244.9
2024-01-09T18:03:20.601Z,1248.6
2024-01-09T18:05:04.353Z,1249.5
2024-01-09T18:06:48.016Z,1249.2
2024-01-09T18:08:31.721Z,1249.8
2024-01-09T18:10:15.452Z,1250.8
2024-01-09T18:11:59.126Z,1247.7
2024-01-09T18:13:42.813Z,1250.7
2024-01-09T18:15:26.535Z,1252.9
2024-01-09T18:17:10.226Z,1250.1
2024-01-09T18:18:53.920Z,1243.6
2024-01-09T18:20:37.623Z,1236.6
2024-01-09T18:22:21.472Z,1234.3
2024-01-09T18:24:05.056Z,1234.5
2024-01-09T18:25:48.740Z,1231.2
2024-01-09T18:27:32.577Z,1226.8
2024-01-09T18:29:16.169Z,1221.7
2024-01-09T18:31:00.009Z,1222.6
2024-01-09T18:32:43.542Z,1221.2
2024-01-09T18:34:27.316Z,1218.7
2024-01-09T18:36:11.003Z,1215.3
2024-01-09T18:37:54.664Z,1197.6
2024-01-09T18:39:38.368Z,1197.4
2024-01-09T18:41:22.294Z,1204
2024-01-09T18:43:05.821Z,1204.3
2024-01-09T18:44:49.605Z,1204.3
2024-01-09T18:46:33.189Z,1204.7
2024-01-09T18:48:16.874Z,1201.5
2024-01-09T18:50:00.725Z,1199.1
2024-01-09T18:51:44.576Z,1199
2024-01-09T18:53:28.048Z,1207.1
2024-01-09T18:55:11.727Z,1215.3
2024-01-09T18:56:55.389Z,1214.9
2024-01-09T18:58:39.106Z,1212.4
2024-01-09T19:00:22.811Z,1209.2
2024-01-09T19:02:06.803Z,1210.2
2024-01-09T19:03:50.220Z,1205.6
2024-01-09T19:05:33.903Z,1204.4
2024-01-09T19:07:17.633Z,1256.9
2024-01-09T19:09:01.305Z,1276.7
2024-01-09T19:10:45.006Z,1284.6
2024-01-09T19:12:29.047Z,1290.6
2024-01-09T19:14:12.452Z,1289.2
2024-01-09T19:15:56.163Z,1291.2
2024-01-09T19:17:39.805Z,1290.6
2024-01-09T19:19:23.547Z,1292.8
2024-01-09T19:21:07.467Z,1295.2
2024-01-09T19:22:51.057Z,1297.6
2024-01-09T19:24:34.615Z,1297.3
2024-01-09T19:26:18.331Z,1291.6
2024-01-09T19:28:02.107Z,1289.4
2024-01-09T19:29:45.821Z,1286.8
2024-01-09T19:31:29.566Z,1287.3
2024-01-09T19:33:13.145Z,1288.9
2024-01-09T19:34:56.845Z,1291.3
2024-01-09T19:36:40.564Z,1296.7
2024-01-09T19:38:24.368Z,1302.4
2024-01-09T19:40:07.924Z,1306.7
2024-01-09T19:41:51.874Z,1312.6
2024-01-09T19:43:35.344Z,1315.6
2024-01-09T19:45:19.035Z,1320.8
2024-01-09T19:47:02.741Z,1325.2
2024-01-09T19:48:46.474Z,1342.5
2024-01-09T19:50:30.295Z,1342.5
2024-01-09T19:52:14.017Z,1350.8
2024-01-09T19:53:57.559Z,1360.9
2024-01-09T19:55:41.263Z,1366.9
2024-01-09T19:57:24.962Z,1366.1
2024-01-09T19:59:08.667Z,1368.3
2024-01-09T20:00:52.414Z,1371.1
2024-01-09T20:02:36.118Z,1366.5
2024-01-09T20:04:19.833Z,1369
2024-01-09T20:06:03.530Z,1372.5
2024-01-09T20:07:47.173Z,1375.3
2024-01-09T20:09:30.980Z,1378.3
2024-01-09T20:11:14.865Z,1379.3
2024-01-09T20:12:58.600Z,1377.1
2024-01-09T20:14:42.082Z,1386.3
2024-01-09T20:16:25.785Z,1391.2
2024-01-09T20:18:09.390Z,1398
2024-01-09T20:19:53.124Z,1402.2
2024-01-09T20:21:37.072Z,1404.3
2024-01-09T20:23:20.527Z,1408.7
2024-01-09T20:25:04.193Z,1414.5
2024-01-09T20:26:47.973Z,1424.6
2024-01-09T20:28:31.809Z,1424.3
2024-01-09T20:30:15.586Z,1425.2
2024-01-09T20:31:59.016Z,1410.2
2024-01-09T20:33:42.872Z,1393.9
2024-01-09T20:35:26.576Z,1390.1
2024-01-09T20:37:10.119Z,1390.8
2024-01-09T20:38:53.892Z,1392.4
2024-01-09T20:40:37.781Z,1398.6
2024-01-09T20:42:21.412Z,1400.6
2024-01-09T20:44:05.088Z,1395
2024-01-09T20:45:48.752Z,1393.8
2024-01-09T20:47:32.556Z,1389.3
2024-01-09T20:49:16.231Z,1386.5
2024-01-09T20:51:00.075Z,1387
2024-01-09T20:52:43.670Z,1386.2
2024-01-09T20:54:27.289Z,1381.8
2024-01-09T20:56:11.201Z,1374.3
2024-01-09T20:57:54.613Z,1374.2
2024-01-09T20:59:38.295Z,1373.4
2024-01-09T21:01:22.066Z,1376
2024-01-09T21:03:05.655Z,1379
2024-01-09T21:04:49.388Z,1374.7
2024-01-09T21:06:33.073Z,1372.9
2024-01-09T21:08:16.772Z,1372.9
2024-01-09T21:10:00.514Z,1374.6
2024-01-09T21:11:44.341Z,1374.7
2024-01-09T21:13:28.109Z,1371.2
2024-01-09T21:15:11.585Z,1368.9
2024-01-09T21:16:55.354Z,1366.6
2024-01-09T21:18:38.985Z,1364.1
2024-01-09T21:20:22.728Z,1361.9
2024-01-09T21:22:06.398Z,1357.7
2024-01-09T21:23:50.117Z,1353.2
2024-01-09T21:25:33.866Z,1350.6
2024-01-09T21:27:17.498Z,1349.9
2024-01-09T21:29:01.240Z,1349.7
2024-01-09T21:30:44.950Z,1349.9
2024-01-09T21:32:28.687Z,1348.9
2024-01-09T21:34:12.362Z,1347.7
2024-01-09T21:35:56.041Z,1353.7
2024-01-09T21:37:39.718Z,1357.8
2024-01-09T21:39:23.419Z,1354.2
2024-01-09T21:41:07.118Z,1354.2
2024-01-09T21:42:50.870Z,1361.2
2024-01-09T21:44:34.524Z,1369.3
2024-01-09T21:46:18.303Z,1377.3
2024-01-09T21:48:01.926Z,1382.4
2024-01-09T21:49:45.632Z,1387.9
2024-01-09T21:51:29.362Z,1385.4
2024-01-09T21:53:13.193Z,1384.9
2024-01-09T21:54:56.798Z,1386.8
2024-01-09T21:56:40.586Z,1388.5